sensor_id;sensor_type;location;lat;lon;timestamp;temperature;humidity
64961;SHT31;51487;52.266;10.542;2023-05-29T00:00:14;14.44;68.57
64961;SHT31;51487;52.266;10.542;2023-05-29T00:02:44;14.30;69.80
64961;SHT31;51487;52.266;10.542;2023-05-29T00:05:11;14.28;69.94
64961;SHT31;51487;52.266;10.542;2023-05-29T00:07:38;14.28;70.05
64961;SHT31;51487;52.266;10.542;2023-05-29T00:10:05;14.34;70.14
64961;SHT31;51487;52.266;10.542;2023-05-29T00:12:32;14.35;70.37
64961;SHT31;51487;52.266;10.542;2023-05-29T00:14:57;14.35;70.41
64961;SHT31;51487;52.266;10.542;2023-05-29T00:17:23;14.30;70.95
64961;SHT31;51487;52.266;10.542;2023-05-29T00:19:50;14.31;70.99
64961;SHT31;51487;52.266;10.542;2023-05-29T00:22:16;14.28;71.07
64961;SHT31;51487;52.266;10.542;2023-05-29T00:24:41;14.27;71.25
64961;SHT31;51487;52.266;10.542;2023-05-29T00:27:07;14.35;71.10
64961;SHT31;51487;52.266;10.542;2023-05-29T00:29:34;14.34;71.16
64961;SHT31;51487;52.266;10.542;2023-05-29T00:32:01;14.30;71.33
64961;SHT31;51487;52.266;10.542;2023-05-29T00:34:27;14.23;71.54
64961;SHT31;51487;52.266;10.542;2023-05-29T00:36:53;14.17;71.68
64961;SHT31;51487;52.266;10.542;2023-05-29T00:39:21;14.18;71.87
64961;SHT31;51487;52.266;10.542;2023-05-29T00:41:47;14.18;71.90
64961;SHT31;51487;52.266;10.542;2023-05-29T00:44:19;14.16;71.92
64961;SHT31;51487;52.266;10.542;2023-05-29T00:46:51;14.02;72.42
64961;SHT31;51487;52.266;10.542;2023-05-29T00:49:19;14.07;72.39
64961;SHT31;51487;52.266;10.542;2023-05-29T00:51:45;14.07;72.37
64961;SHT31;51487;52.266;10.542;2023-05-29T00:54:14;13.99;72.74
64961;SHT31;51487;52.266;10.542;2023-05-29T00:56:43;13.87;73.16
64961;SHT31;51487;52.266;10.542;2023-05-29T00:59:10;13.90;73.18
64961;SHT31;51487;52.266;10.542;2023-05-29T01:01:37;13.83;73.42
64961;SHT31;51487;52.266;10.542;2023-05-29T01:04:05;13.77;73.62
64961;SHT31;51487;52.266;10.542;2023-05-29T01:06:35;13.70;73.86
64961;SHT31;51487;52.266;10.542;2023-05-29T01:09:01;13.75;73.76
64961;SHT31;51487;52.266;10.542;2023-05-29T01:11:49;13.67;73.97
64961;SHT31;51487;52.266;10.542;2023-05-29T01:17:14;13.56;74.05
64961;SHT31;51487;52.266;10.542;2023-05-29T01:29:10;13.32;75.05
64961;SHT31;51487;52.266;10.542;2023-05-29T01:31:39;13.38;74.93
64961;SHT31;51487;52.266;10.542;2023-05-29T01:34:06;13.39;74.95
64961;SHT31;51487;52.266;10.542;2023-05-29T01:36:31;13.29;75.20
64961;SHT31;51487;52.266;10.542;2023-05-29T01:38:59;13.34;75.12
64961;SHT31;51487;52.266;10.542;2023-05-29T01:41:26;13.31;75.21
64961;SHT31;51487;52.266;10.542;2023-05-29T01:43:53;13.24;75.34
64961;SHT31;51487;52.266;10.542;2023-05-29T01:46:20;13.12;75.62
64961;SHT31;51487;52.266;10.542;2023-05-29T01:48:46;13.15;75.74
64961;SHT31;51487;52.266;10.542;2023-05-29T01:51:12;13.10;75.72
64961;SHT31;51487;52.266;10.542;2023-05-29T01:53:42;12.97;76.26
64961;SHT31;51487;52.266;10.542;2023-05-29T01:56:09;12.90;76.52
64961;SHT31;51487;52.266;10.542;2023-05-29T01:58:38;12.80;76.85
64961;SHT31;51487;52.266;10.542;2023-05-29T02:01:05;12.83;76.68
64961;SHT31;51487;52.266;10.542;2023-05-29T02:03:32;12.80;76.80
64961;SHT31;51487;52.266;10.542;2023-05-29T02:05:59;12.79;76.82
64961;SHT31;51487;52.266;10.542;2023-05-29T02:08:25;12.84;76.76
64961;SHT31;51487;52.266;10.542;2023-05-29T02:10:52;12.81;76.89
64961;SHT31;51487;52.266;10.542;2023-05-29T02:13:17;12.76;76.98
64961;SHT31;51487;52.266;10.542;2023-05-29T02:15:43;12.75;77.10
64961;SHT31;51487;52.266;10.542;2023-05-29T02:18:12;12.75;77.06
64961;SHT31;51487;52.266;10.542;2023-05-29T02:20:39;12.69;77.24
64961;SHT31;51487;52.266;10.542;2023-05-29T02:23:04;12.57;77.46
64961;SHT31;51487;52.266;10.542;2023-05-29T02:25:30;12.59;77.49
64961;SHT31;51487;52.266;10.542;2023-05-29T02:27:56;12.38;78.03
64961;SHT31;51487;52.266;10.542;2023-05-29T02:30:21;12.40;78.06
64961;SHT31;51487;52.266;10.542;2023-05-29T02:32:47;12.33;78.25
64961;SHT31;51487;52.266;10.542;2023-05-29T02:35:13;12.33;78.37
64961;SHT31;51487;52.266;10.542;2023-05-29T02:37:42;12.28;78.40
64961;SHT31;51487;52.266;10.542;2023-05-29T02:40:08;12.26;78.50
64961;SHT31;51487;52.266;10.542;2023-05-29T02:42:34;12.12;78.82
64961;SHT31;51487;52.266;10.542;2023-05-29T02:45:00;12.04;78.99
64961;SHT31;51487;52.266;10.542;2023-05-29T02:47:26;12.05;79.04
64961;SHT31;51487;52.266;10.542;2023-05-29T02:49:51;11.95;79.39
64961;SHT31;51487;52.266;10.542;2023-05-29T02:52:17;11.95;79.33
64961;SHT31;51487;52.266;10.542;2023-05-29T02:54:42;11.82;79.76
64961;SHT31;51487;52.266;10.542;2023-05-29T02:57:08;11.92;79.25
64961;SHT31;51487;52.266;10.542;2023-05-29T02:59:33;11.95;79.32
64961;SHT31;51487;52.266;10.542;2023-05-29T03:01:59;11.95;79.29
64961;SHT31;51487;52.266;10.542;2023-05-29T03:04:25;11.88;79.32
64961;SHT31;51487;52.266;10.542;2023-05-29T03:06:51;11.78;79.61
64961;SHT31;51487;52.266;10.542;2023-05-29T03:09:18;11.75;79.77
64961;SHT31;51487;52.266;10.542;2023-05-29T03:11:43;11.71;80.10
64961;SHT31;51487;52.266;10.542;2023-05-29T03:14:10;11.77;79.91
64961;SHT31;51487;52.266;10.542;2023-05-29T03:16:35;11.70;80.00
64961;SHT31;51487;52.266;10.542;2023-05-29T03:19:01;11.75;80.01
64961;SHT31;51487;52.266;10.542;2023-05-29T03:21:27;11.74;80.02
64961;SHT31;51487;52.266;10.542;2023-05-29T03:23:52;11.71;80.02
64961;SHT31;51487;52.266;10.542;2023-05-29T03:26:18;11.82;79.82
64961;SHT31;51487;52.266;10.542;2023-05-29T03:28:44;11.85;79.73
64961;SHT31;51487;52.266;10.542;2023-05-29T03:31:09;11.75;79.89
64961;SHT31;51487;52.266;10.542;2023-05-29T03:33:36;11.73;80.00
64961;SHT31;51487;52.266;10.542;2023-05-29T03:36:02;11.77;79.92
64961;SHT31;51487;52.266;10.542;2023-05-29T03:38:27;11.77;79.80
64961;SHT31;51487;52.266;10.542;2023-05-29T03:40:54;11.81;79.64
64961;SHT31;51487;52.266;10.542;2023-05-29T03:43:19;11.75;79.86
64961;SHT31;51487;52.266;10.542;2023-05-29T03:45:45;11.73;80.07
64961;SHT31;51487;52.266;10.542;2023-05-29T03:48:10;11.67;80.12
64961;SHT31;51487;52.266;10.542;2023-05-29T03:50:36;11.66;80.09
64961;SHT31;51487;52.266;10.542;2023-05-29T03:53:01;11.66;80.17
64961;SHT31;51487;52.266;10.542;2023-05-29T03:55:27;11.70;80.06
64961;SHT31;51487;52.266;10.542;2023-05-29T03:57:53;11.75;80.07
64961;SHT31;51487;52.266;10.542;2023-05-29T04:00:19;11.84;79.69
64961;SHT31;51487;52.266;10.542;2023-05-29T04:02:45;11.82;79.61
64961;SHT31;51487;52.266;10.542;2023-05-29T04:05:11;11.78;79.78
64961;SHT31;51487;52.266;10.542;2023-05-29T04:07:38;11.84;79.91
64961;SHT31;51487;52.266;10.542;2023-05-29T04:10:06;11.92;79.66
64961;SHT31;51487;52.266;10.542;2023-05-29T04:12:35;12.04;79.75
64961;SHT31;51487;52.266;10.542;2023-05-29T04:15:00;12.12;79.25
64961;SHT31;51487;52.266;10.542;2023-05-29T04:17:26;12.22;78.66
64961;SHT31;51487;52.266;10.542;2023-05-29T04:19:51;12.26;78.32
64961;SHT31;51487;52.266;10.542;2023-05-29T04:22:17;12.28;78.39
64961;SHT31;51487;52.266;10.542;2023-05-29T04:24:43;12.38;78.10
64961;SHT31;51487;52.266;10.542;2023-05-29T04:27:09;12.39;78.01
64961;SHT31;51487;52.266;10.542;2023-05-29T04:29:39;12.45;78.08
64961;SHT31;51487;52.266;10.542;2023-05-29T04:32:06;12.55;77.62
64961;SHT31;51487;52.266;10.542;2023-05-29T04:34:34;12.53;77.84
64961;SHT31;51487;52.266;10.542;2023-05-29T04:36:59;12.39;78.31
64961;SHT31;51487;52.266;10.542;2023-05-29T04:39:25;12.43;78.43
64961;SHT31;51487;52.266;10.542;2023-05-29T04:41:51;12.43;78.19
64961;SHT31;51487;52.266;10.542;2023-05-29T04:44:17;12.59;77.95
64961;SHT31;51487;52.266;10.542;2023-05-29T04:46:44;12.56;78.09
64961;SHT31;51487;52.266;10.542;2023-05-29T04:49:12;12.40;78.99
64961;SHT31;51487;52.266;10.542;2023-05-29T04:51:40;12.39;79.22
64961;SHT31;51487;52.266;10.542;2023-05-29T04:54:07;12.61;78.66
64961;SHT31;51487;52.266;10.542;2023-05-29T04:56:34;12.49;79.09
64961;SHT31;51487;52.266;10.542;2023-05-29T04:59:00;12.50;79.29
64961;SHT31;51487;52.266;10.542;2023-05-29T05:01:25;12.57;79.04
64961;SHT31;51487;52.266;10.542;2023-05-29T05:03:51;12.60;78.74
64961;SHT31;51487;52.266;10.542;2023-05-29T05:06:23;12.59;79.10
64961;SHT31;51487;52.266;10.542;2023-05-29T05:08:51;12.46;79.39
64961;SHT31;51487;52.266;10.542;2023-05-29T05:11:18;12.48;79.58
64961;SHT31;51487;52.266;10.542;2023-05-29T05:13:43;12.57;79.47
64961;SHT31;51487;52.266;10.542;2023-05-29T05:16:09;12.70;79.11
64961;SHT31;51487;52.266;10.542;2023-05-29T05:18:36;12.79;79.02
64961;SHT31;51487;52.266;10.542;2023-05-29T05:21:02;12.56;79.11
64961;SHT31;51487;52.266;10.542;2023-05-29T05:23:31;12.76;78.99
64961;SHT31;51487;52.266;10.542;2023-05-29T05:25:57;12.97;78.84
64961;SHT31;51487;52.266;10.542;2023-05-29T05:28:22;12.79;79.14
64961;SHT31;51487;52.266;10.542;2023-05-29T05:30:48;13.00;78.92
64961;SHT31;51487;52.266;10.542;2023-05-29T05:33:13;13.00;78.23
64961;SHT31;51487;52.266;10.542;2023-05-29T05:35:39;12.96;78.57
64961;SHT31;51487;52.266;10.542;2023-05-29T05:38:05;12.87;78.90
64961;SHT31;51487;52.266;10.542;2023-05-29T05:40:31;12.91;79.14
64961;SHT31;51487;52.266;10.542;2023-05-29T05:42:57;13.11;78.73
64961;SHT31;51487;52.266;10.542;2023-05-29T05:45:22;13.11;78.45
64961;SHT31;51487;52.266;10.542;2023-05-29T05:47:48;13.19;78.37
64961;SHT31;51487;52.266;10.542;2023-05-29T05:50:14;13.07;78.72
64961;SHT31;51487;52.266;10.542;2023-05-29T05:52:39;13.06;78.86
64961;SHT31;51487;52.266;10.542;2023-05-29T05:55:05;13.04;79.17
64961;SHT31;51487;52.266;10.542;2023-05-29T05:57:31;12.98;79.66
64961;SHT31;51487;52.266;10.542;2023-05-29T06:00:07;13.14;79.16
64961;SHT31;51487;52.266;10.542;2023-05-29T06:02:37;13.31;78.72
64961;SHT31;51487;52.266;10.542;2023-05-29T06:05:04;13.38;78.65
64961;SHT31;51487;52.266;10.542;2023-05-29T06:07:32;13.46;78.43
64961;SHT31;51487;52.266;10.542;2023-05-29T06:09:58;13.42;78.80
64961;SHT31;51487;52.266;10.542;2023-05-29T06:12:23;13.31;79.18
64961;SHT31;51487;52.266;10.542;2023-05-29T06:14:49;13.48;78.99
64961;SHT31;51487;52.266;10.542;2023-05-29T06:17:15;13.62;78.73
64961;SHT31;51487;52.266;10.542;2023-05-29T06:19:41;13.69;78.42
64961;SHT31;51487;52.266;10.542;2023-05-29T06:22:07;13.63;78.79
64961;SHT31;51487;52.266;10.542;2023-05-29T06:24:32;13.76;78.83
64961;SHT31;51487;52.266;10.542;2023-05-29T06:26:58;13.72;78.82
64961;SHT31;51487;52.266;10.542;2023-05-29T06:29:24;13.90;78.49
64961;SHT31;51487;52.266;10.542;2023-05-29T06:31:49;13.96;78.07
64961;SHT31;51487;52.266;10.542;2023-05-29T06:34:15;14.10;77.91
64961;SHT31;51487;52.266;10.542;2023-05-29T06:36:40;14.13;77.54
64961;SHT31;51487;52.266;10.542;2023-05-29T06:39:07;14.07;77.74
64961;SHT31;51487;52.266;10.542;2023-05-29T06:41:33;14.10;78.10
64961;SHT31;51487;52.266;10.542;2023-05-29T06:43:58;14.24;77.43
64961;SHT31;51487;52.266;10.542;2023-05-29T06:46:24;14.16;77.51
64961;SHT31;51487;52.266;10.542;2023-05-29T06:48:49;14.26;77.04
64961;SHT31;51487;52.266;10.542;2023-05-29T06:51:17;14.40;76.98
64961;SHT31;51487;52.266;10.542;2023-05-29T06:53:43;14.47;76.48
64961;SHT31;51487;52.266;10.542;2023-05-29T06:56:08;14.47;76.61
64961;SHT31;51487;52.266;10.542;2023-05-29T06:58:34;14.60;76.59
64961;SHT31;51487;52.266;10.542;2023-05-29T07:01:00;14.63;76.28
64961;SHT31;51487;52.266;10.542;2023-05-29T07:03:26;14.74;75.72
64961;SHT31;51487;52.266;10.542;2023-05-29T07:05:53;14.71;76.01
64961;SHT31;51487;52.266;10.542;2023-05-29T07:08:19;14.98;75.56
64961;SHT31;51487;52.266;10.542;2023-05-29T07:10:44;15.16;75.13
64961;SHT31;51487;52.266;10.542;2023-05-29T07:13:16;15.34;74.24
64961;SHT31;51487;52.266;10.542;2023-05-29T07:15:42;15.39;73.81
64961;SHT31;51487;52.266;10.542;2023-05-29T07:18:07;15.42;73.91
64961;SHT31;51487;52.266;10.542;2023-05-29T07:20:33;15.33;74.06
64961;SHT31;51487;52.266;10.542;2023-05-29T07:22:58;14.96;74.94
64961;SHT31;51487;52.266;10.542;2023-05-29T07:25:24;15.19;75.13
64961;SHT31;51487;52.266;10.542;2023-05-29T07:27:50;15.32;74.53
64961;SHT31;51487;52.266;10.542;2023-05-29T07:30:16;15.44;74.32
64961;SHT31;51487;52.266;10.542;2023-05-29T07:32:41;15.19;73.78
64961;SHT31;51487;52.266;10.542;2023-05-29T07:35:07;15.14;74.38
64961;SHT31;51487;52.266;10.542;2023-05-29T07:37:34;15.16;74.64
64961;SHT31;51487;52.266;10.542;2023-05-29T07:40:00;15.27;74.35
64961;SHT31;51487;52.266;10.542;2023-05-29T07:42:25;15.09;74.38
64961;SHT31;51487;52.266;10.542;2023-05-29T07:44:51;15.14;74.55
64961;SHT31;51487;52.266;10.542;2023-05-29T07:47:16;15.29;74.47
64961;SHT31;51487;52.266;10.542;2023-05-29T07:49:42;15.40;74.03
64961;SHT31;51487;52.266;10.542;2023-05-29T07:52:08;15.42;73.75
64961;SHT31;51487;52.266;10.542;2023-05-29T07:54:33;15.43;73.56
64961;SHT31;51487;52.266;10.542;2023-05-29T07:57:00;15.53;73.39
64961;SHT31;51487;52.266;10.542;2023-05-29T07:59:28;15.46;73.07
64961;SHT31;51487;52.266;10.542;2023-05-29T08:01:54;15.64;72.68
64961;SHT31;51487;52.266;10.542;2023-05-29T08:04:24;15.44;72.96
64961;SHT31;51487;52.266;10.542;2023-05-29T08:06:50;15.71;72.47
64961;SHT31;51487;52.266;10.542;2023-05-29T08:09:16;15.74;71.91
64961;SHT31;51487;52.266;10.542;2023-05-29T08:11:42;15.67;72.92
64961;SHT31;51487;52.266;10.542;2023-05-29T08:14:11;15.77;72.77
64961;SHT31;51487;52.266;10.542;2023-05-29T08:16:36;16.01;71.62
64961;SHT31;51487;52.266;10.542;2023-05-29T08:19:02;15.74;71.42
64961;SHT31;51487;52.266;10.542;2023-05-29T08:21:27;15.92;71.71
64961;SHT31;51487;52.266;10.542;2023-05-29T08:23:53;16.09;71.76
64961;SHT31;51487;52.266;10.542;2023-05-29T08:26:18;16.01;72.47
64961;SHT31;51487;52.266;10.542;2023-05-29T08:28:44;15.97;72.55
64961;SHT31;51487;52.266;10.542;2023-05-29T08:31:09;16.19;71.88
64961;SHT31;51487;52.266;10.542;2023-05-29T08:33:35;16.18;71.60
64961;SHT31;51487;52.266;10.542;2023-05-29T08:36:02;16.26;71.79
64961;SHT31;51487;52.266;10.542;2023-05-29T08:38:27;16.30;71.11
64961;SHT31;51487;52.266;10.542;2023-05-29T08:40:56;16.05;71.85
64961;SHT31;51487;52.266;10.542;2023-05-29T08:43:24;16.12;71.48
64961;SHT31;51487;52.266;10.542;2023-05-29T08:45:55;16.12;71.44
64961;SHT31;51487;52.266;10.542;2023-05-29T08:48:26;16.15;71.12
64961;SHT31;51487;52.266;10.542;2023-05-29T08:50:55;16.12;71.27
64961;SHT31;51487;52.266;10.542;2023-05-29T08:53:23;16.33;71.09
64961;SHT31;51487;52.266;10.542;2023-05-29T08:55:50;16.55;70.04
64961;SHT31;51487;52.266;10.542;2023-05-29T08:58:17;16.70;70.04
64961;SHT31;51487;52.266;10.542;2023-05-29T09:00:47;16.88;69.35
64961;SHT31;51487;52.266;10.542;2023-05-29T09:03:14;17.08;69.66
64961;SHT31;51487;52.266;10.542;2023-05-29T09:05:40;17.14;68.91
64961;SHT31;51487;52.266;10.542;2023-05-29T09:08:11;17.07;69.38
64961;SHT31;51487;52.266;10.542;2023-05-29T09:10:42;17.25;68.44
64961;SHT31;51487;52.266;10.542;2023-05-29T09:13:09;17.03;67.90
64961;SHT31;51487;52.266;10.542;2023-05-29T09:15:37;17.24;67.84
64961;SHT31;51487;52.266;10.542;2023-05-29T09:18:05;17.50;67.96
64961;SHT31;51487;52.266;10.542;2023-05-29T09:20:31;17.72;67.05
64961;SHT31;51487;52.266;10.542;2023-05-29T09:23:00;17.53;66.43
64961;SHT31;51487;52.266;10.542;2023-05-29T09:25:30;17.58;66.45
64961;SHT31;51487;52.266;10.542;2023-05-29T09:28:04;17.69;65.68
64961;SHT31;51487;52.266;10.542;2023-05-29T09:30:44;17.75;65.87
64961;SHT31;51487;52.266;10.542;2023-05-29T09:33:13;17.35;65.26
64961;SHT31;51487;52.266;10.542;2023-05-29T09:35:45;17.65;65.39
64961;SHT31;51487;52.266;10.542;2023-05-29T09:38:20;17.76;65.72
64961;SHT31;51487;52.266;10.542;2023-05-29T09:40:46;17.94;64.53
64961;SHT31;51487;52.266;10.542;2023-05-29T09:43:17;17.87;63.80
64961;SHT31;51487;52.266;10.542;2023-05-29T09:45:49;17.70;63.27
64961;SHT31;51487;52.266;10.542;2023-05-29T09:48:18;17.69;64.05
64961;SHT31;51487;52.266;10.542;2023-05-29T09:50:47;17.72;65.33
64961;SHT31;51487;52.266;10.542;2023-05-29T09:53:25;17.65;64.41
64961;SHT31;51487;52.266;10.542;2023-05-29T09:55:54;17.66;63.76
64961;SHT31;51487;52.266;10.542;2023-05-29T09:58:21;17.97;63.20
64961;SHT31;51487;52.266;10.542;2023-05-29T10:00:48;18.20;62.91
64961;SHT31;51487;52.266;10.542;2023-05-29T10:03:15;18.08;62.69
64961;SHT31;51487;52.266;10.542;2023-05-29T10:05:43;18.21;62.73
64961;SHT31;51487;52.266;10.542;2023-05-29T10:08:12;18.36;62.01
64961;SHT31;51487;52.266;10.542;2023-05-29T10:10:43;18.55;62.04
64961;SHT31;51487;52.266;10.542;2023-05-29T10:13:14;18.69;61.75
64961;SHT31;51487;52.266;10.542;2023-05-29T10:15:43;18.72;60.93
64961;SHT31;51487;52.266;10.542;2023-05-29T10:18:26;18.65;59.79
64961;SHT31;51487;52.266;10.542;2023-05-29T10:20:56;18.78;59.30
64961;SHT31;51487;52.266;10.542;2023-05-29T10:23:25;18.65;59.15
64961;SHT31;51487;52.266;10.542;2023-05-29T10:25:54;18.89;58.30
64961;SHT31;51487;52.266;10.542;2023-05-29T10:28:25;18.62;58.61
64961;SHT31;51487;52.266;10.542;2023-05-29T10:31:00;18.61;58.57
64961;SHT31;51487;52.266;10.542;2023-05-29T10:34:00;18.55;59.70
64961;SHT31;51487;52.266;10.542;2023-05-29T10:36:49;18.52;59.18
64961;SHT31;51487;52.266;10.542;2023-05-29T10:39:21;18.65;58.66
64961;SHT31;51487;52.266;10.542;2023-05-29T10:41:47;18.66;58.77
64961;SHT31;51487;52.266;10.542;2023-05-29T10:49:24;18.94;58.48
64961;SHT31;51487;52.266;10.542;2023-05-29T10:51:51;19.05;57.85
64961;SHT31;51487;52.266;10.542;2023-05-29T10:54:22;18.89;57.84
64961;SHT31;51487;52.266;10.542;2023-05-29T10:57:00;19.09;57.85
64961;SHT31;51487;52.266;10.542;2023-05-29T10:59:26;19.09;57.69
64961;SHT31;51487;52.266;10.542;2023-05-29T11:01:55;18.96;58.13
64961;SHT31;51487;52.266;10.542;2023-05-29T11:06:46;19.07;57.60
64961;SHT31;51487;52.266;10.542;2023-05-29T11:09:33;19.10;57.42
64961;SHT31;51487;52.266;10.542;2023-05-29T11:12:24;19.24;57.25
64961;SHT31;51487;52.266;10.542;2023-05-29T11:15:09;19.03;56.50
64961;SHT31;51487;52.266;10.542;2023-05-29T11:20:07;19.02;57.11
64961;SHT31;51487;52.266;10.542;2023-05-29T11:25:14;19.16;57.45
64961;SHT31;51487;52.266;10.542;2023-05-29T11:27:41;19.10;57.28
64961;SHT31;51487;52.266;10.542;2023-05-29T11:30:08;19.13;55.91
64961;SHT31;51487;52.266;10.542;2023-05-29T11:32:36;19.15;56.31
64961;SHT31;51487;52.266;10.542;2023-05-29T11:35:09;19.24;56.17
64961;SHT31;51487;52.266;10.542;2023-05-29T11:37:39;19.23;55.14
64961;SHT31;51487;52.266;10.542;2023-05-29T11:40:06;19.40;54.37
64961;SHT31;51487;52.266;10.542;2023-05-29T11:42:33;19.46;54.51
64961;SHT31;51487;52.266;10.542;2023-05-29T11:45:16;19.43;54.99
64961;SHT31;51487;52.266;10.542;2023-05-29T11:47:55;18.98;56.05
64961;SHT31;51487;52.266;10.542;2023-05-29T11:50:26;19.07;56.11
64961;SHT31;51487;52.266;10.542;2023-05-29T11:52:52;19.09;55.76
64961;SHT31;51487;52.266;10.542;2023-05-29T11:55:20;19.26;55.32
64961;SHT31;51487;52.266;10.542;2023-05-29T11:57:47;19.33;55.88
64961;SHT31;51487;52.266;10.542;2023-05-29T12:00:18;19.34;54.20
64961;SHT31;51487;52.266;10.542;2023-05-29T12:02:45;19.38;55.03
64961;SHT31;51487;52.266;10.542;2023-05-29T12:05:16;19.37;55.23
64961;SHT31;51487;52.266;10.542;2023-05-29T12:07:51;19.67;55.29
64961;SHT31;51487;52.266;10.542;2023-05-29T12:10:20;19.65;54.04
64961;SHT31;51487;52.266;10.542;2023-05-29T12:12:53;19.77;53.88
64961;SHT31;51487;52.266;10.542;2023-05-29T12:15:20;20.16;53.87
64961;SHT31;51487;52.266;10.542;2023-05-29T12:17:48;19.77;52.90
64961;SHT31;51487;52.266;10.542;2023-05-29T12:20:15;19.78;52.54
64961;SHT31;51487;52.266;10.542;2023-05-29T12:22:43;19.67;52.32
64961;SHT31;51487;52.266;10.542;2023-05-29T12:25:30;19.79;51.98
64961;SHT31;51487;52.266;10.542;2023-05-29T12:27:57;19.53;52.30
64961;SHT31;51487;52.266;10.542;2023-05-29T12:30:23;19.74;52.33
64961;SHT31;51487;52.266;10.542;2023-05-29T12:32:51;19.96;51.75
64961;SHT31;51487;52.266;10.542;2023-05-29T12:35:27;20.06;51.62
64961;SHT31;51487;52.266;10.542;2023-05-29T12:38:00;20.18;52.32
64961;SHT31;51487;52.266;10.542;2023-05-29T12:40:28;20.15;50.05
64961;SHT31;51487;52.266;10.542;2023-05-29T12:45:32;19.85;51.09
64961;SHT31;51487;52.266;10.542;2023-05-29T12:48:00;19.50;51.81
64961;SHT31;51487;52.266;10.542;2023-05-29T12:50:34;19.65;51.37
64961;SHT31;51487;52.266;10.542;2023-05-29T12:53:08;19.41;51.35
64961;SHT31;51487;52.266;10.542;2023-05-29T12:55:35;19.55;51.83
64961;SHT31;51487;52.266;10.542;2023-05-29T12:58:15;19.79;50.95
64961;SHT31;51487;52.266;10.542;2023-05-29T13:00:45;20.13;49.54
64961;SHT31;51487;52.266;10.542;2023-05-29T13:03:11;20.28;49.22
64961;SHT31;51487;52.266;10.542;2023-05-29T13:05:37;20.50;48.73
64961;SHT31;51487;52.266;10.542;2023-05-29T13:08:03;20.53;47.93
64961;SHT31;51487;52.266;10.542;2023-05-29T13:10:33;20.67;48.95
64961;SHT31;51487;52.266;10.542;2023-05-29T13:12:59;20.73;49.26
64961;SHT31;51487;52.266;10.542;2023-05-29T13:15:25;20.76;47.90
64961;SHT31;51487;52.266;10.542;2023-05-29T13:17:52;20.53;48.48
64961;SHT31;51487;52.266;10.542;2023-05-29T13:20:20;20.43;47.93
64961;SHT31;51487;52.266;10.542;2023-05-29T13:22:47;20.44;48.14
64961;SHT31;51487;52.266;10.542;2023-05-29T13:25:15;20.06;48.37
64961;SHT31;51487;52.266;10.542;2023-05-29T13:27:44;20.29;48.59
64961;SHT31;51487;52.266;10.542;2023-05-29T13:30:11;20.22;48.52
64961;SHT31;51487;52.266;10.542;2023-05-29T13:32:38;20.28;48.59
64961;SHT31;51487;52.266;10.542;2023-05-29T13:35:04;20.12;48.83
64961;SHT31;51487;52.266;10.542;2023-05-29T13:37:30;20.49;49.05
64961;SHT31;51487;52.266;10.542;2023-05-29T13:39:56;20.43;47.60
64961;SHT31;51487;52.266;10.542;2023-05-29T13:42:22;20.43;47.67
64961;SHT31;51487;52.266;10.542;2023-05-29T13:44:49;20.23;47.21
64961;SHT31;51487;52.266;10.542;2023-05-29T13:47:15;20.32;48.35
64961;SHT31;51487;52.266;10.542;2023-05-29T13:49:42;20.50;48.54
64961;SHT31;51487;52.266;10.542;2023-05-29T13:52:07;20.44;48.88
64961;SHT31;51487;52.266;10.542;2023-05-29T13:54:33;20.40;48.33
64961;SHT31;51487;52.266;10.542;2023-05-29T13:57:05;20.34;48.67
64961;SHT31;51487;52.266;10.542;2023-05-29T13:59:32;20.70;48.04
64961;SHT31;51487;52.266;10.542;2023-05-29T14:01:58;20.88;47.42
64961;SHT31;51487;52.266;10.542;2023-05-29T14:04:24;20.67;47.57
64961;SHT31;51487;52.266;10.542;2023-05-29T14:06:50;20.50;48.88
64961;SHT31;51487;52.266;10.542;2023-05-29T14:09:16;20.34;48.89
64961;SHT31;51487;52.266;10.542;2023-05-29T14:11:44;20.49;49.22
64961;SHT31;51487;52.266;10.542;2023-05-29T14:14:09;20.59;48.66
64961;SHT31;51487;52.266;10.542;2023-05-29T14:16:35;20.81;48.14
64961;SHT31;51487;52.266;10.542;2023-05-29T14:19:00;20.73;47.73
64961;SHT31;51487;52.266;10.542;2023-05-29T14:21:26;20.67;48.18
64961;SHT31;51487;52.266;10.542;2023-05-29T14:23:52;20.85;48.55
64961;SHT31;51487;52.266;10.542;2023-05-29T14:26:17;20.97;47.56
64961;SHT31;51487;52.266;10.542;2023-05-29T14:28:44;20.98;47.04
64961;SHT31;51487;52.266;10.542;2023-05-29T14:31:09;20.77;46.78
64961;SHT31;51487;52.266;10.542;2023-05-29T14:33:35;20.79;47.06
64961;SHT31;51487;52.266;10.542;2023-05-29T14:36:02;20.67;47.07
64961;SHT31;51487;52.266;10.542;2023-05-29T14:38:28;20.71;47.12
64961;SHT31;51487;52.266;10.542;2023-05-29T14:40:54;21.05;47.26
64961;SHT31;51487;52.266;10.542;2023-05-29T14:43:20;21.02;46.35
64961;SHT31;51487;52.266;10.542;2023-05-29T14:45:45;20.91;45.55
64961;SHT31;51487;52.266;10.542;2023-05-29T14:48:11;21.01;45.26
64961;SHT31;51487;52.266;10.542;2023-05-29T14:50:37;21.27;44.65
64961;SHT31;51487;52.266;10.542;2023-05-29T14:53:03;21.43;43.71
64961;SHT31;51487;52.266;10.542;2023-05-29T14:55:28;21.43;42.16
64961;SHT31;51487;52.266;10.542;2023-05-29T14:57:56;21.50;42.03
64961;SHT31;51487;52.266;10.542;2023-05-29T15:00:21;21.66;40.35
64961;SHT31;51487;52.266;10.542;2023-05-29T15:02:47;21.53;39.78
64961;SHT31;51487;52.266;10.542;2023-05-29T15:05:12;21.53;39.18
64961;SHT31;51487;52.266;10.542;2023-05-29T15:07:38;21.45;39.21
64961;SHT31;51487;52.266;10.542;2023-05-29T15:10:04;21.52;39.11
64961;SHT31;51487;52.266;10.542;2023-05-29T15:12:32;21.58;39.32
64961;SHT31;51487;52.266;10.542;2023-05-29T15:14:58;21.99;39.38
64961;SHT31;51487;52.266;10.542;2023-05-29T15:17:23;21.76;39.01
64961;SHT31;51487;52.266;10.542;2023-05-29T15:19:49;21.62;39.33
64961;SHT31;51487;52.266;10.542;2023-05-29T15:22:14;21.12;39.24
64961;SHT31;51487;52.266;10.542;2023-05-29T15:24:40;21.78;38.71
64961;SHT31;51487;52.266;10.542;2023-05-29T15:27:05;21.42;37.98
64961;SHT31;51487;52.266;10.542;2023-05-29T15:29:35;21.52;37.77
64961;SHT31;51487;52.266;10.542;2023-05-29T15:32:01;21.93;38.07
64961;SHT31;51487;52.266;10.542;2023-05-29T15:34:27;21.94;36.43
64961;SHT31;51487;52.266;10.542;2023-05-29T15:36:52;22.22;36.01
64961;SHT31;51487;52.266;10.542;2023-05-29T15:39:18;22.04;35.35
64961;SHT31;51487;52.266;10.542;2023-05-29T15:41:44;22.13;35.45
64961;SHT31;51487;52.266;10.542;2023-05-29T15:44:09;22.09;35.07